createdAt,value
2019-02-27T00:00:17.824Z,13.67
2019-02-27T00:02:46.476Z,20.60
2019-02-27T00:05:15.136Z,16.33
2019-02-27T00:07:43.716Z,13.93
2019-02-27T00:10:12.631Z,12.97
2019-02-27T00:12:41.292Z,12.37
2019-02-27T00:15:10.006Z,15.43
2019-02-27T00:17:38.765Z,11.30
2019-02-27T00:20:07.980Z,9.70
2019-02-27T00:22:36.570Z,21.23
2019-02-27T00:25:05.557Z,11.87
2019-02-27T00:27:34.276Z,9.63
2019-02-27T00:30:05.591Z,15.17
2019-02-27T00:32:33.280Z,13.40
2019-02-27T00:35:06.473Z,13.03
2019-02-27T00:37:32.108Z,14.63
2019-02-27T00:40:05.457Z,12.90
2019-02-27T00:42:33.578Z,13.10
2019-02-27T00:45:01.278Z,19.47
2019-02-27T00:47:29.851Z,15.03
2019-02-27T00:49:58.446Z,18.40
2019-02-27T00:52:27.032Z,17.53
2019-02-27T00:54:55.641Z,14.57
2019-02-27T00:57:24.232Z,12.80
2019-02-27T00:59:52.820Z,19.70
2019-02-27T01:02:21.480Z,14.13
2019-02-27T01:04:50.060Z,19.33
2019-02-27T01:07:20.748Z,13.40
2019-02-27T01:09:50.188Z,15.13
2019-02-27T01:12:18.969Z,13.87
2019-02-27T01:14:47.544Z,15.23
2019-02-27T01:17:16.149Z,12.17
2019-02-27T01:19:44.736Z,12.77
2019-02-27T01:22:13.509Z,15.60
2019-02-27T01:24:42.105Z,11.50
2019-02-27T01:27:10.683Z,10.63
2019-02-27T01:29:39.284Z,13.97
2019-02-27T01:32:07.864Z,14.60
2019-02-27T01:34:36.572Z,13.30
2019-02-27T01:37:05.241Z,18.10
2019-02-27T01:39:33.844Z,15.17
2019-02-27T01:42:02.493Z,11.43
2019-02-27T01:44:50.576Z,13.33
2019-02-27T01:47:19.892Z,18.50
2019-02-27T01:49:49.155Z,18.47
2019-02-27T01:52:18.360Z,16.27
2019-02-27T01:54:48.856Z,14.20
2019-02-27T01:57:17.245Z,16.87
2019-02-27T01:59:50.258Z,16.57
2019-02-27T02:02:16.055Z,18.33
2019-02-27T02:04:44.704Z,17.20
2019-02-27T02:07:13.352Z,22.63
2019-02-27T02:09:42.192Z,21.07
2019-02-27T02:12:16.582Z,21.13
2019-02-27T02:14:54.096Z,24.37
2019-02-27T02:17:45.292Z,22.70
2019-02-27T02:20:42.764Z,25.80
2019-02-27T02:23:31.100Z,28.20
2019-02-27T02:26:14.727Z,31.07
2019-02-27T02:29:06.057Z,28.83
2019-02-27T02:31:41.601Z,22.17
2019-02-27T02:34:40.299Z,28.63
2019-02-27T02:37:11.612Z,24.40
2019-02-27T02:39:55.357Z,23.87
2019-02-27T02:42:45.365Z,24.23
2019-02-27T02:45:35.314Z,27.77
2019-02-27T02:48:12.597Z,29.50
2019-02-27T02:51:18.809Z,26.67
2019-02-27T02:54:13.513Z,29.03
2019-02-27T02:57:09.160Z,31.30
2019-02-27T02:59:59.905Z,35.60
2019-02-27T03:02:48.916Z,33.60
2019-02-27T03:05:38.584Z,36.30
2019-02-27T03:08:22.438Z,34.47
2019-02-27T03:11:21.337Z,33.20
2019-02-27T03:13:55.916Z,36.90
2019-02-27T03:16:33.824Z,38.33
2019-02-27T03:19:08.369Z,43.13
2019-02-27T03:21:54.900Z,45.43
2019-02-27T03:24:44.488Z,41.30
2019-02-27T03:27:19.054Z,37.13
2019-02-27T03:29:53.918Z,46.33
2019-02-27T03:32:48.165Z,43.63
2019-02-27T03:35:36.388Z,43.13
2019-02-27T03:38:13.842Z,46.87
2019-02-27T03:41:12.341Z,41.23
2019-02-27T03:44:01.693Z,45.57
2019-02-27T03:46:40.782Z,40.20
2019-02-27T03:49:11.901Z,46.50
2019-02-27T03:52:06.105Z,44.77
2019-02-27T03:54:40.368Z,45.70
2019-02-27T03:57:18.895Z,46.80
2019-02-27T03:59:53.809Z,46.00
2019-02-27T04:05:22.058Z,49.30
2019-02-27T04:08:11.780Z,48.33
2019-02-27T04:10:40.525Z,55.93
2019-02-27T04:13:09.173Z,53.47
2019-02-27T04:15:37.899Z,52.53
2019-02-27T04:18:05.409Z,47.83
2019-02-27T04:20:33.998Z,45.60
2019-02-27T04:23:02.594Z,50.70
2019-02-27T04:25:32.195Z,49.20
2019-02-27T04:28:00.955Z,50.47
2019-02-27T04:30:29.548Z,52.37
2019-02-27T04:32:58.130Z,46.37
2019-02-27T04:35:26.731Z,58.90
2019-02-27T04:37:55.312Z,51.40
2019-02-27T04:40:23.905Z,46.40
2019-02-27T04:42:52.488Z,47.53
2019-02-27T04:45:21.081Z,50.57
2019-02-27T04:47:49.660Z,50.03
2019-02-27T04:50:18.312Z,48.03
2019-02-27T04:52:46.909Z,50.87
2019-02-27T04:55:15.651Z,50.50
2019-02-27T04:57:44.762Z,49.47
2019-02-27T05:00:13.530Z,51.60
2019-02-27T05:02:42.114Z,50.60
2019-02-27T05:05:10.922Z,50.17
2019-02-27T05:07:39.577Z,48.37
2019-02-27T05:10:09.486Z,55.50
2019-02-27T05:12:38.094Z,52.17
2019-02-27T05:15:08.802Z,48.20
2019-02-27T05:17:37.375Z,53.13
2019-02-27T05:20:11.657Z,53.00
2019-02-27T05:22:38.518Z,55.40
2019-02-27T05:27:43.122Z,49.93
2019-02-27T05:30:12.900Z,52.87
2019-02-27T05:32:41.412Z,49.57
2019-02-27T05:35:09.998Z,54.50
2019-02-27T05:37:39.338Z,60.10
2019-02-27T05:40:10.051Z,57.77
2019-02-27T05:42:39.110Z,53.50
2019-02-27T05:45:11.138Z,66.13
2019-02-27T05:47:44.842Z,60.37
2019-02-27T05:50:11.874Z,50.40
2019-02-27T05:52:40.468Z,54.80
2019-02-27T05:55:09.093Z,60.97
2019-02-27T05:57:37.678Z,54.57
2019-02-27T06:00:15.077Z,57.13
2019-02-27T06:02:44.984Z,56.60
2019-02-27T06:05:14.038Z,47.77
2019-02-27T06:07:42.601Z,61.03
2019-02-27T06:10:20.126Z,55.23
2019-02-27T06:12:47.945Z,60.73
2019-02-27T06:15:18.435Z,57.67
2019-02-27T06:17:49.082Z,61.83
2019-02-27T06:20:17.434Z,50.90
2019-02-27T06:22:46.006Z,55.83
2019-02-27T06:25:21.681Z,56.17
2019-02-27T06:27:47.898Z,55.37
2019-02-27T06:30:18.106Z,62.97
2019-02-27T06:32:46.753Z,65.07
2019-02-27T06:35:15.967Z,60.33
2019-02-27T06:37:44.638Z,58.33
2019-02-27T06:40:15.353Z,64.03
2019-02-27T06:42:44.008Z,62.70
2019-02-27T06:45:17.055Z,63.60
2019-02-27T06:47:45.706Z,61.20
2019-02-27T06:50:15.818Z,65.23
2019-02-27T06:52:46.291Z,70.67
2019-02-27T06:55:15.575Z,81.73
2019-02-27T06:57:44.219Z,67.43
2019-02-27T07:00:23.651Z,73.33
2019-02-27T07:02:55.241Z,62.63
2019-02-27T07:05:22.789Z,70.83
2019-02-27T07:07:51.369Z,67.23
2019-02-27T07:10:20.667Z,74.90
2019-02-27T07:12:49.307Z,65.47
2019-02-27T07:15:22.861Z,64.90
2019-02-27T07:17:51.706Z,60.63
2019-02-27T07:20:24.050Z,65.10
2019-02-27T07:22:50.594Z,64.93
2019-02-27T07:25:20.019Z,69.07
2019-02-27T07:27:49.296Z,64.83
2019-02-27T07:30:19.907Z,65.10
2019-02-27T07:32:48.633Z,62.13
2019-02-27T07:35:17.438Z,60.70
2019-02-27T07:37:48.006Z,62.20
2019-02-27T07:40:17.533Z,63.10
2019-02-27T07:42:46.222Z,59.05
2019-02-27T07:45:22.929Z,60.87
2019-02-27T07:47:51.762Z,62.55
2019-02-27T07:50:21.272Z,59.65
2019-02-27T07:52:51.943Z,55.90
2019-02-27T07:55:22.918Z,64.80
2019-02-27T07:57:50.459Z,59.77
2019-02-27T08:00:20.859Z,61.58
2019-02-27T08:02:49.506Z,54.98
2019-02-27T08:05:18.164Z,55.15
2019-02-27T08:07:49.112Z,61.73
2019-02-27T08:10:21.694Z,60.80
2019-02-27T08:12:50.343Z,57.23
2019-02-27T08:15:19.767Z,58.78
2019-02-27T08:17:48.545Z,63.13
2019-02-27T08:20:20.206Z,63.77
2019-02-27T08:22:48.252Z,60.60
2019-02-27T08:25:19.822Z,55.50
2019-02-27T08:27:48.577Z,54.63
2019-02-27T08:30:25.969Z,68.12
2019-02-27T08:32:54.754Z,57.05
2019-02-27T08:35:23.670Z,53.67
2019-02-27T08:38:01.903Z,56.35
2019-02-27T08:40:25.115Z,54.25
2019-02-27T08:42:52.842Z,53.52
2019-02-27T08:45:26.472Z,58.85
2019-02-27T08:47:51.899Z,58.30
2019-02-27T08:50:22.696Z,54.08
2019-02-27T08:52:51.863Z,60.03
2019-02-27T08:55:22.518Z,54.87
2019-02-27T08:57:56.061Z,52.35
2019-02-27T09:00:33.251Z,56.03
2019-02-27T09:03:02.876Z,55.00
2019-02-27T09:05:32.174Z,61.10
2019-02-27T09:08:00.769Z,52.87
2019-02-27T09:10:30.649Z,56.43
2019-02-27T09:13:05.379Z,48.70
2019-02-27T09:15:29.729Z,45.63
2019-02-27T09:17:59.244Z,52.47
2019-02-27T09:20:28.602Z,50.60
2019-02-27T09:22:57.198Z,45.28
2019-02-27T09:25:26.066Z,45.50
2019-02-27T09:27:54.640Z,45.23
2019-02-27T09:30:28.892Z,45.50
2019-02-27T09:32:54.958Z,46.00
2019-02-27T09:35:23.615Z,40.92
2019-02-27T09:37:52.266Z,43.70
2019-02-27T09:40:29.701Z,44.53
2019-02-27T09:42:58.536Z,41.85
2019-02-27T09:45:35.515Z,46.53
2019-02-27T09:48:04.987Z,41.28
2019-02-27T09:50:52.939Z,38.15
2019-02-27T09:53:21.574Z,43.77
2019-02-27T09:55:53.526Z,42.60
2019-02-27T09:58:22.500Z,44.07
2019-02-27T10:01:01.481Z,38.10
2019-02-27T10:03:29.629Z,39.77
2019-02-27T10:05:58.338Z,38.75
2019-02-27T10:08:27.073Z,44.93
2019-02-27T10:10:55.642Z,46.23
2019-02-27T10:13:24.333Z,39.40
2019-02-27T10:15:52.974Z,44.07
2019-02-27T10:18:22.196Z,36.33
2019-02-27T10:20:50.935Z,33.13
2019-02-27T10:23:19.514Z,41.13
2019-02-27T10:25:49.846Z,38.10
2019-02-27T10:28:18.462Z,36.30
2019-02-27T10:30:49.937Z,44.43
2019-02-27T10:33:17.346Z,38.95
2019-02-27T10:35:46.065Z,37.33
2019-02-27T10:38:14.646Z,39.83
2019-02-27T10:40:46.042Z,39.07
2019-02-27T10:43:13.469Z,40.47
2019-02-27T10:45:42.343Z,37.03
2019-02-27T10:48:12.589Z,36.70
2019-02-27T10:50:41.234Z,36.60
2019-02-27T10:53:09.823Z,37.17
2019-02-27T10:55:38.398Z,37.30
2019-02-27T10:58:07.776Z,36.03
2019-02-27T11:00:36.490Z,35.70
2019-02-27T11:03:05.226Z,38.47
2019-02-27T11:05:38.762Z,37.63
2019-02-27T11:08:07.802Z,37.13
2019-02-27T11:10:36.547Z,39.23
2019-02-27T11:13:06.805Z,41.20
2019-02-27T11:15:35.595Z,43.43
2019-02-27T11:18:05.718Z,39.20
2019-02-27T11:20:34.567Z,32.50
2019-02-27T11:23:06.435Z,37.77
2019-02-27T11:25:33.664Z,39.83
2019-02-27T11:28:02.272Z,43.97
2019-02-27T11:30:38.646Z,38.73
2019-02-27T11:33:07.358Z,38.20
2019-02-27T11:35:36.070Z,40.93
2019-02-27T11:38:05.668Z,32.53
2019-02-27T11:40:34.246Z,36.17
2019-02-27T11:43:06.425Z,38.90
2019-02-27T11:45:33.332Z,31.67
2019-02-27T11:50:36.615Z,33.40
2019-02-27T11:53:05.341Z,31.65
2019-02-27T11:55:33.991Z,31.97
2019-02-27T11:58:05.323Z,34.20
2019-02-27T12:00:36.187Z,32.60
2019-02-27T12:03:04.838Z,32.63
2019-02-27T12:05:34.410Z,36.20
2019-02-27T12:08:03.180Z,31.10
2019-02-27T12:10:32.473Z,26.60
2019-02-27T12:13:01.739Z,26.77
2019-02-27T12:15:31.736Z,22.33
2019-02-27T12:18:01.603Z,24.33
2019-02-27T12:20:30.733Z,25.00
2019-02-27T12:22:59.450Z,24.40
2019-02-27T12:25:30.041Z,21.87
2019-02-27T12:27:58.394Z,23.87
2019-02-27T12:30:28.827Z,20.30
2019-02-27T12:32:57.552Z,18.32
2019-02-27T12:35:37.054Z,23.27
2019-02-27T12:38:08.163Z,22.07
2019-02-27T12:40:36.586Z,29.25
2019-02-27T12:43:05.406Z,21.10
2019-02-27T12:45:34.193Z,22.97
2019-02-27T12:48:02.820Z,20.17
2019-02-27T12:50:31.700Z,18.40
2019-02-27T12:53:00.382Z,22.43
2019-02-27T12:55:29.101Z,19.60
2019-02-27T12:57:57.687Z,23.35
2019-02-27T13:00:36.074Z,16.62
2019-02-27T13:03:08.418Z,15.53
2019-02-27T13:05:35.384Z,17.07
2019-02-27T13:08:04.294Z,14.63
2019-02-27T13:10:34.121Z,18.32
2019-02-27T13:13:02.960Z,22.87
2019-02-27T13:15:31.614Z,19.23
2019-02-27T13:18:00.254Z,17.80
2019-02-27T13:20:30.177Z,15.72
2019-02-27T13:23:04.059Z,14.87
2019-02-27T13:25:30.373Z,20.93
2019-02-27T13:27:59.250Z,14.53
2019-02-27T13:30:28.566Z,18.03
2019-02-27T13:33:00.729Z,16.77
2019-02-27T13:35:28.508Z,14.67
2019-02-27T13:37:57.730Z,18.82
2019-02-27T13:40:28.609Z,15.05
2019-02-27T13:42:57.362Z,14.93
2019-02-27T13:45:27.566Z,15.47
2019-02-27T13:47:56.298Z,15.63
2019-02-27T13:50:26.814Z,18.53
2019-02-27T13:52:55.577Z,15.20
2019-02-27T13:55:24.510Z,18.00
2019-02-27T13:57:53.170Z,14.93
2019-02-27T14:00:25.851Z,19.07
2019-02-27T14:02:54.631Z,15.53
2019-02-27T14:05:23.210Z,19.95
2019-02-27T14:07:57.238Z,15.43
2019-02-27T14:10:25.662Z,19.37
2019-02-27T14:12:54.303Z,16.90
2019-02-27T14:15:26.950Z,18.37
2019-02-27T14:17:53.980Z,20.33
2019-02-27T14:20:27.109Z,14.20
2019-02-27T14:22:54.364Z,20.00
2019-02-27T14:25:33.231Z,17.67
2019-02-27T14:28:01.745Z,16.63
2019-02-27T14:30:35.548Z,20.10
2019-02-27T14:33:03.729Z,14.63
2019-02-27T14:35:36.201Z,11.57
2019-02-27T14:38:02.678Z,13.87
2019-02-27T14:40:31.237Z,14.17
2019-02-27T14:42:59.911Z,13.40
2019-02-27T14:45:28.630Z,15.67
2019-02-27T14:47:57.269Z,12.33
2019-02-27T14:50:26.026Z,14.27
2019-02-27T14:52:54.755Z,15.37
2019-02-27T14:55:23.602Z,17.30
2019-02-27T14:57:52.248Z,8.67
2019-02-27T15:00:29.649Z,12.37
2019-02-27T15:02:58.454Z,9.30
2019-02-27T15:05:27.754Z,15.60
2019-02-27T15:07:56.466Z,13.03
2019-02-27T15:10:25.615Z,12.57
2019-02-27T15:12:55.537Z,11.40
2019-02-27T15:15:26.884Z,17.03
2019-02-27T15:17:55.699Z,11.27
2019-02-27T15:20:26.686Z,14.17
2019-02-27T15:22:55.347Z,13.50
2019-02-27T15:25:24.079Z,11.43
2019-02-27T15:27:52.686Z,10.20
2019-02-27T15:30:26.637Z,11.27
2019-02-27T15:32:55.431Z,12.87
2019-02-27T15:35:24.078Z,10.23
2019-02-27T15:37:52.785Z,11.33
2019-02-27T15:40:28.541Z,11.43
2019-02-27T15:42:54.242Z,14.30
2019-02-27T15:45:24.342Z,14.17
2019-02-27T15:47:53.100Z,15.20
2019-02-27T15:50:27.434Z,20.47
2019-02-27T15:52:56.071Z,12.77
2019-02-27T15:55:24.912Z,16.00
2019-02-27T15:57:54.165Z,7.73
2019-02-27T16:00:27.521Z,10.07
2019-02-27T16:02:56.458Z,16.43
2019-02-27T16:05:30.019Z,9.27
2019-02-27T16:07:57.143Z,19.00
2019-02-27T16:10:26.966Z,10.57
2019-02-27T16:12:59.849Z,10.80
2019-02-27T16:15:26.104Z,11.33
2019-02-27T16:17:54.745Z,11.97
2019-02-27T16:20:28.207Z,11.50
2019-02-27T16:22:56.886Z,7.20
2019-02-27T16:25:26.807Z,6.57
2019-02-27T16:27:55.819Z,11.43
2019-02-27T16:30:32.489Z,11.87
2019-02-27T16:32:58.872Z,8.47
2019-02-27T16:35:27.670Z,12.27
2019-02-27T16:37:57.576Z,8.67
2019-02-27T16:40:32.492Z,10.33
2019-02-27T16:43:01.044Z,13.67
2019-02-27T16:45:36.833Z,15.73
2019-02-27T16:48:05.607Z,13.27
2019-02-27T16:50:34.390Z,9.33
2019-02-27T16:53:03.044Z,7.67
2019-02-27T16:55:35.880Z,17.97
2019-02-27T16:58:02.222Z,18.80
2019-02-27T17:00:32.235Z,16.37
2019-02-27T17:03:00.878Z,11.67
2019-02-27T17:05:31.703Z,12.53
2019-02-27T17:08:02.300Z,14.30
2019-02-27T17:10:35.524Z,17.37
2019-02-27T17:13:04.390Z,15.37
2019-02-27T17:15:36.013Z,15.23
2019-02-27T17:18:03.320Z,13.30
2019-02-27T17:20:31.978Z,11.73
2019-02-27T17:23:00.582Z,10.87
2019-02-27T17:25:30.242Z,8.97
2019-02-27T17:27:58.979Z,7.33
2019-02-27T17:30:30.731Z,17.63
2019-02-27T17:33:01.410Z,7.90
2019-02-27T17:35:29.702Z,14.80
2019-02-27T17:37:58.447Z,7.90
2019-02-27T17:40:29.039Z,10.67
2019-02-27T17:42:57.347Z,14.67
2019-02-27T17:45:26.852Z,13.73
2019-02-27T17:47:55.571Z,20.90
2019-02-27T17:50:24.480Z,10.10
2019-02-27T17:52:53.494Z,14.87
2019-02-27T17:55:22.417Z,13.57
2019-02-27T17:57:57.722Z,10.07
2019-02-27T18:00:32.623Z,8.90
2019-02-27T18:03:01.230Z,13.53
2019-02-27T18:05:29.934Z,7.37
2019-02-27T18:07:58.570Z,9.20
2019-02-27T18:10:27.218Z,22.33
2019-02-27T18:12:55.802Z,16.60
2019-02-27T18:15:25.222Z,13.97
2019-02-27T18:17:53.965Z,10.13
2019-02-27T18:20:25.511Z,12.70
2019-02-27T18:22:52.916Z,16.50
2019-02-27T18:25:21.607Z,9.10
2019-02-27T18:27:50.422Z,12.97
2019-02-27T18:30:20.836Z,15.37
2019-02-27T18:32:49.856Z,13.47
2019-02-27T18:35:19.657Z,13.60
2019-02-27T18:37:53.192Z,11.37
2019-02-27T18:40:19.624Z,15.90
2019-02-27T18:42:48.231Z,11.97
2019-02-27T18:45:22.262Z,19.93
2019-02-27T18:47:50.922Z,15.47
2019-02-27T18:50:19.574Z,15.43
2019-02-27T18:52:48.785Z,19.00
2019-02-27T18:55:17.598Z,21.03
2019-02-27T18:57:47.375Z,19.00
2019-02-27T19:00:24.556Z,17.20
2019-02-27T19:03:01.791Z,23.00
2019-02-27T19:05:30.372Z,14.50
2019-02-27T19:07:59.006Z,18.23
2019-02-27T19:10:27.729Z,23.63
2019-02-27T19:12:56.297Z,26.07
2019-02-27T19:15:26.412Z,28.33
2019-02-27T19:17:55.126Z,22.73
2019-02-27T19:20:42.789Z,22.20
2019-02-27T19:23:11.705Z,25.23
2019-02-27T19:25:41.843Z,26.93
2019-02-27T19:28:10.834Z,23.17
2019-02-27T19:30:41.856Z,24.43
2019-02-27T19:33:09.862Z,34.00
2019-02-27T19:35:38.442Z,25.03
2019-02-27T19:38:07.171Z,22.97
2019-02-27T19:40:36.730Z,24.97
2019-02-27T19:43:06.366Z,25.20
2019-02-27T19:45:35.794Z,19.73
2019-02-27T19:48:05.332Z,39.00
2019-02-27T19:50:35.703Z,33.23
2019-02-27T19:53:06.943Z,27.17
2019-02-27T19:55:34.835Z,27.13
2019-02-27T19:58:03.710Z,24.07
2019-02-27T20:00:35.183Z,29.73
2019-02-27T20:03:04.202Z,29.00
2019-02-27T20:05:36.252Z,39.23
2019-02-27T20:08:03.546Z,28.60
2019-02-27T20:10:33.897Z,35.10
2019-02-27T20:13:02.567Z,26.93
2019-02-27T20:15:31.267Z,29.23
2019-02-27T20:18:01.258Z,24.60
2019-02-27T20:20:32.547Z,38.60
2019-02-27T20:23:01.212Z,34.40
2019-02-27T20:25:32.863Z,38.23
2019-02-27T20:28:03.774Z,35.97
2019-02-27T20:30:34.001Z,29.83
2019-02-27T20:33:04.931Z,24.10
2019-02-27T20:35:33.502Z,30.37
2019-02-27T20:38:02.081Z,31.77
2019-02-27T20:40:33.777Z,30.50
2019-02-27T20:43:01.107Z,26.73
2019-02-27T20:45:29.758Z,37.73
2019-02-27T20:48:02.846Z,39.63
2019-02-27T20:50:37.018Z,31.20
2019-02-27T20:53:06.829Z,23.20
2019-02-27T20:55:35.390Z,34.07
2019-02-27T20:58:06.383Z,40.40
2019-02-27T21:00:37.281Z,35.47
2019-02-27T21:03:06.022Z,25.93
2019-02-27T21:05:35.239Z,30.93
2019-02-27T21:08:05.375Z,33.00
2019-02-27T21:10:35.049Z,24.30
2019-02-27T21:13:03.697Z,22.93
2019-02-27T21:15:33.444Z,30.80
2019-02-27T21:18:02.323Z,27.10
2019-02-27T21:20:32.901Z,31.97
2019-02-27T21:23:01.311Z,37.50
2019-02-27T21:25:30.042Z,26.13
2019-02-27T21:27:58.602Z,31.73
2019-02-27T21:30:27.398Z,35.47
2019-02-27T21:32:56.134Z,22.80
2019-02-27T21:35:28.859Z,23.63
2019-02-27T21:37:55.246Z,31.03
2019-02-27T21:40:24.050Z,21.90
2019-02-27T21:42:52.618Z,32.27
2019-02-27T21:45:24.878Z,36.70
2019-02-27T21:47:53.530Z,24.33
2019-02-27T21:50:25.661Z,35.50
2019-02-27T21:52:55.615Z,31.43
2019-02-27T21:55:25.073Z,30.47
2019-02-27T21:57:53.719Z,32.90
2019-02-27T22:00:24.743Z,37.23
2019-02-27T22:02:54.961Z,29.57
2019-02-27T22:05:23.672Z,37.40
2019-02-27T22:07:52.474Z,24.73
2019-02-27T22:10:21.122Z,39.90
2019-02-27T22:12:49.763Z,31.27
2019-02-27T22:15:23.007Z,33.03
2019-02-27T22:17:51.273Z,26.83
2019-02-27T22:20:19.851Z,25.43
2019-02-27T22:22:48.442Z,30.43
2019-02-27T22:25:17.054Z,27.90
2019-02-27T22:27:46.615Z,34.27
2019-02-27T22:30:17.538Z,23.80
2019-02-27T22:32:48.179Z,29.07
2019-02-27T22:35:16.470Z,33.10
2019-02-27T22:37:45.193Z,33.53
2019-02-27T22:40:16.471Z,35.17
2019-02-27T22:42:45.470Z,35.67
2019-02-27T22:45:19.473Z,32.50
2019-02-27T22:47:48.890Z,33.80
2019-02-27T22:50:20.739Z,26.93
2019-02-27T22:52:54.105Z,34.57
2019-02-27T22:55:19.686Z,34.33
2019-02-27T22:57:48.394Z,41.33
2019-02-27T23:00:44.153Z,35.53
2019-02-27T23:03:12.805Z,38.73
2019-02-27T23:05:41.522Z,36.27
2019-02-27T23:08:10.318Z,31.50
2019-02-27T23:10:39.138Z,35.27
2019-02-27T23:13:12.398Z,41.77
2019-02-27T23:15:39.594Z,33.60
2019-02-27T23:18:08.379Z,29.43
2019-02-27T23:20:37.078Z,31.20
2019-02-27T23:23:05.725Z,37.87
2019-02-27T23:25:34.435Z,34.73
2019-02-27T23:28:03.086Z,25.57
2019-02-27T23:30:31.707Z,30.27
2019-02-27T23:33:02.290Z,32.63
2019-02-27T23:35:30.524Z,26.83
2019-02-27T23:38:03.075Z,38.27
2019-02-27T23:40:29.322Z,31.17
2019-02-27T23:43:02.416Z,35.60
2019-02-27T23:45:28.274Z,32.93
2019-02-27T23:47:59.196Z,26.10
2019-02-27T23:50:27.169Z,31.90
2019-02-27T23:52:55.947Z,34.73
2019-02-27T23:55:24.596Z,35.57
2019-02-27T23:57:57.578Z,34.13
